createdAt,value
2019-06-08T00:00:42.330Z,13.50
2019-06-08T00:03:10.638Z,13.50
2019-06-08T00:05:38.923Z,13.50
2019-06-08T00:08:07.195Z,13.50
2019-06-08T00:10:35.446Z,13.50
2019-06-08T00:13:03.728Z,13.40
2019-06-08T00:15:32.042Z,13.40
2019-06-08T00:18:00.293Z,13.50
2019-06-08T00:20:28.542Z,13.40
2019-06-08T00:22:56.813Z,13.40
2019-06-08T00:25:25.530Z,13.30
2019-06-08T00:27:53.800Z,13.20
2019-06-08T00:30:22.045Z,13.10
2019-06-08T00:32:50.311Z,13.10
2019-06-08T00:35:18.701Z,13.10
2019-06-08T00:37:47.093Z,13.00
2019-06-08T00:40:15.337Z,13.00
2019-06-08T00:42:43.595Z,13.00
2019-06-08T00:45:11.910Z,13.00
2019-06-08T00:47:47.557Z,13.00
2019-06-08T00:50:31.165Z,13.00
2019-06-08T00:52:59.429Z,13.00
2019-06-08T00:55:27.671Z,13.00
2019-06-08T00:57:55.933Z,13.00
2019-06-08T01:00:24.623Z,13.10
2019-06-08T01:02:53.014Z,13.00
2019-06-08T01:05:21.916Z,13.10
2019-06-08T01:07:50.404Z,13.00
2019-06-08T01:10:19.250Z,13.00
2019-06-08T01:12:47.741Z,13.10
2019-06-08T01:15:16.020Z,13.00
2019-06-08T01:17:44.340Z,13.00
2019-06-08T01:20:12.591Z,13.00
2019-06-08T01:22:40.845Z,13.00
2019-06-08T01:25:09.093Z,13.00
2019-06-08T01:27:37.342Z,13.00
2019-06-08T01:30:07.699Z,12.90
2019-06-08T01:32:35.946Z,12.80
2019-06-08T01:35:04.848Z,12.80
2019-06-08T01:37:33.089Z,12.80
2019-06-08T01:40:01.341Z,12.80
2019-06-08T01:42:29.795Z,12.80
2019-06-08T01:44:58.221Z,12.80
2019-06-08T01:47:26.469Z,12.80
2019-06-08T01:49:54.737Z,12.90
2019-06-08T01:52:22.986Z,12.80
2019-06-08T01:54:51.245Z,12.90
2019-06-08T01:57:19.494Z,12.90
2019-06-08T01:59:47.757Z,12.90
2019-06-08T02:02:16.001Z,12.90
2019-06-08T02:04:44.257Z,12.80
2019-06-08T02:07:12.535Z,12.70
2019-06-08T02:09:40.790Z,12.60
2019-06-08T02:12:09.032Z,12.50
2019-06-08T02:14:37.310Z,12.50
2019-06-08T02:17:05.565Z,12.50
2019-06-08T02:19:34.819Z,12.50
2019-06-08T02:22:03.261Z,12.50
2019-06-08T02:24:31.523Z,12.50
2019-06-08T02:26:59.768Z,12.60
2019-06-08T02:29:28.097Z,12.60
2019-06-08T02:31:56.351Z,12.60
2019-06-08T02:34:24.607Z,12.60
2019-06-08T02:36:52.853Z,12.70
2019-06-08T02:39:21.110Z,12.70
2019-06-08T02:41:49.351Z,12.70
2019-06-08T02:44:17.609Z,12.80
2019-06-08T02:46:45.853Z,12.80
2019-06-08T02:49:14.113Z,12.90
2019-06-08T02:51:42.359Z,12.90
2019-06-08T02:54:10.982Z,12.90
2019-06-08T02:56:41.093Z,12.90
2019-06-08T02:59:09.214Z,13.00
2019-06-08T03:01:38.839Z,13.00
2019-06-08T03:04:07.447Z,13.00
2019-06-08T03:06:36.812Z,13.00
2019-06-08T03:09:06.541Z,13.00
2019-06-08T03:11:36.873Z,13.00
2019-06-08T03:14:05.735Z,13.10
2019-06-08T03:16:35.767Z,13.10
2019-06-08T03:19:20.156Z,13.00
2019-06-08T03:21:34.567Z,13.20
2019-06-08T03:24:03.914Z,13.20
2019-06-08T03:26:32.191Z,13.20
2019-06-08T03:29:00.502Z,13.20
2019-06-08T03:31:28.775Z,13.10
2019-06-08T03:33:57.102Z,13.10
2019-06-08T03:36:25.419Z,13.10
2019-06-08T03:38:53.738Z,13.20
2019-06-08T03:41:22.004Z,13.20
2019-06-08T03:43:50.260Z,13.20
2019-06-08T03:46:18.522Z,13.20
2019-06-08T03:48:46.771Z,13.30
2019-06-08T03:51:15.026Z,13.20
2019-06-08T03:53:46.483Z,13.20
2019-06-08T03:56:13.253Z,13.20
2019-06-08T03:58:42.897Z,13.20
2019-06-08T04:01:11.490Z,13.20
2019-06-08T04:03:41.404Z,13.20
2019-06-08T04:06:09.716Z,13.20
2019-06-08T04:08:40.192Z,13.20
2019-06-08T04:11:07.950Z,13.20
2019-06-08T04:13:37.540Z,13.30
2019-06-08T04:16:06.131Z,13.20
2019-06-08T04:18:34.375Z,13.20
2019-06-08T04:21:02.665Z,13.30
2019-06-08T04:23:30.908Z,13.30
2019-06-08T04:25:59.173Z,13.30
2019-06-08T04:28:27.428Z,13.40
2019-06-08T04:30:55.700Z,13.40
2019-06-08T04:33:23.950Z,13.40
2019-06-08T04:35:52.215Z,13.40
2019-06-08T04:38:20.466Z,13.40
2019-06-08T04:40:50.129Z,13.50
2019-06-08T04:43:18.559Z,13.60
2019-06-08T04:45:48.107Z,13.70
2019-06-08T04:48:16.793Z,13.80
2019-06-08T04:50:45.944Z,13.70
2019-06-08T04:53:15.034Z,13.70
2019-06-08T04:55:45.107Z,13.70
2019-06-08T04:58:14.107Z,13.70
2019-06-08T05:00:43.972Z,13.70
2019-06-08T05:03:12.342Z,13.80
2019-06-08T05:05:41.051Z,13.90
2019-06-08T05:08:09.421Z,15.40
2019-06-08T05:10:39.079Z,15.60
2019-06-08T05:13:07.707Z,17.10
2019-06-08T05:15:35.958Z,18.90
2019-06-08T05:18:04.364Z,19.90
2019-06-08T05:20:39.016Z,19.90
2019-06-08T05:23:02.872Z,19.30
2019-06-08T05:25:31.204Z,19.00
2019-06-08T05:27:59.449Z,18.30
2019-06-08T05:30:28.223Z,18.10
2019-06-08T05:32:56.648Z,19.50
2019-06-08T05:35:24.902Z,20.00
2019-06-08T05:37:53.156Z,20.60
2019-06-08T05:40:21.406Z,21.10
2019-06-08T05:42:49.976Z,20.90
2019-06-08T05:45:18.509Z,19.80
2019-06-08T05:47:47.928Z,19.30
2019-06-08T05:50:16.506Z,19.70
2019-06-08T05:52:45.886Z,19.90
2019-06-08T05:55:14.491Z,20.90
2019-06-08T05:57:44.144Z,21.70
2019-06-08T06:00:12.784Z,22.10
2019-06-08T06:02:42.160Z,22.60
2019-06-08T06:05:10.771Z,23.00
2019-06-08T06:07:40.417Z,22.50
2019-06-08T06:10:09.048Z,22.50
2019-06-08T06:12:37.301Z,22.60
2019-06-08T06:15:06.489Z,23.00
2019-06-08T06:17:34.757Z,23.40
2019-06-08T06:20:04.701Z,23.30
2019-06-08T06:22:32.963Z,24.00
2019-06-08T06:25:01.277Z,24.40
2019-06-08T06:27:29.570Z,23.60
2019-06-08T06:29:57.818Z,23.60
2019-06-08T06:32:26.075Z,24.20
2019-06-08T06:34:54.318Z,23.90
2019-06-08T06:37:22.669Z,23.50
2019-06-08T06:39:52.148Z,23.30
2019-06-08T06:42:21.686Z,23.70
2019-06-08T06:44:52.316Z,23.40
2019-06-08T06:47:20.853Z,23.00
2019-06-08T06:49:50.547Z,23.40
2019-06-08T06:52:19.202Z,23.80
2019-06-08T06:54:48.868Z,23.80
2019-06-08T06:57:17.429Z,23.80
2019-06-08T06:59:45.732Z,23.90
2019-06-08T07:02:14.001Z,24.50
2019-06-08T07:04:42.250Z,23.90
2019-06-08T07:07:10.505Z,23.70
2019-06-08T07:09:38.751Z,24.60
2019-06-08T07:12:07.010Z,25.20
2019-06-08T07:14:35.256Z,25.10
2019-06-08T07:17:03.887Z,25.20
2019-06-08T07:19:32.125Z,24.20
2019-06-08T07:22:00.381Z,23.80
2019-06-08T07:24:28.634Z,23.90
2019-06-08T07:26:56.893Z,23.30
2019-06-08T07:29:25.168Z,22.60
2019-06-08T07:31:55.072Z,22.00
2019-06-08T07:34:23.461Z,22.30
2019-06-08T07:36:51.718Z,23.60
2019-06-08T07:39:19.973Z,24.50
2019-06-08T07:41:49.070Z,24.00
2019-06-08T07:44:18.201Z,24.40
2019-06-08T07:46:46.962Z,24.20
2019-06-08T07:49:15.477Z,23.90
2019-06-08T07:51:57.813Z,23.20
2019-06-08T07:54:13.700Z,22.20
2019-06-08T07:56:42.009Z,21.10
2019-06-08T07:59:10.320Z,20.80
2019-06-08T08:01:38.562Z,20.30
2019-06-08T08:04:06.822Z,20.40
2019-06-08T08:06:35.072Z,20.70
2019-06-08T08:09:04.558Z,21.20
2019-06-08T08:11:32.855Z,21.30
2019-06-08T08:14:01.111Z,21.80
2019-06-08T08:16:29.352Z,22.30
2019-06-08T08:18:57.685Z,21.80
2019-06-08T08:21:27.203Z,21.10
2019-06-08T08:23:58.288Z,20.60
2019-06-08T08:26:27.290Z,20.30
2019-06-08T08:28:59.686Z,20.60
2019-06-08T08:31:27.864Z,20.90
2019-06-08T08:33:58.312Z,20.50
2019-06-08T08:36:25.798Z,20.30
2019-06-08T08:38:54.058Z,20.60
2019-06-08T08:41:22.301Z,21.10
2019-06-08T08:43:52.636Z,20.80
2019-06-08T08:46:20.540Z,20.30
2019-06-08T08:48:50.914Z,20.00
2019-06-08T08:51:20.669Z,19.90
2019-06-08T08:53:53.824Z,19.80
2019-06-08T08:56:18.763Z,20.00
2019-06-08T08:58:47.817Z,20.20
2019-06-08T09:01:20.250Z,20.40
2019-06-08T09:03:48.167Z,20.10
2019-06-08T09:06:18.170Z,19.70
2019-06-08T09:08:48.395Z,19.50
2019-06-08T09:11:17.600Z,19.20
2019-06-08T09:13:48.707Z,19.10
2019-06-08T09:16:17.718Z,19.50
2019-06-08T09:18:48.016Z,19.60
2019-06-08T09:21:18.550Z,20.10
2019-06-08T09:23:48.436Z,19.90
2019-06-08T09:26:17.653Z,19.80
2019-06-08T09:28:46.283Z,19.90
2019-06-08T09:31:14.525Z,20.00
2019-06-08T09:33:42.778Z,20.00
2019-06-08T09:36:11.086Z,19.70
2019-06-08T09:38:39.393Z,19.30
2019-06-08T09:41:08.985Z,19.20
2019-06-08T09:43:38.847Z,19.50
2019-06-08T09:46:09.165Z,19.50
2019-06-08T09:48:38.190Z,19.40
2019-06-08T09:51:09.275Z,19.50
2019-06-08T09:53:40.792Z,19.40
2019-06-08T09:56:09.568Z,19.30
2019-06-08T09:58:39.179Z,19.00
2019-06-08T10:01:09.138Z,18.90
2019-06-08T10:03:39.256Z,19.10
2019-06-08T10:06:11.551Z,19.10
2019-06-08T10:08:38.762Z,19.40
2019-06-08T10:11:09.413Z,19.50
2019-06-08T10:13:39.155Z,19.50
2019-06-08T10:16:10.074Z,19.90
2019-06-08T10:18:38.638Z,19.80
2019-06-08T10:21:09.403Z,19.30
2019-06-08T10:23:38.624Z,19.30
2019-06-08T10:26:07.014Z,19.40
2019-06-08T10:28:35.330Z,19.60
2019-06-08T10:31:04.851Z,19.50
2019-06-08T10:33:33.521Z,19.40
2019-06-08T10:36:03.615Z,19.60
2019-06-08T10:38:31.765Z,20.10
2019-06-08T10:41:09.169Z,20.50
2019-06-08T10:43:34.042Z,20.10
2019-06-08T10:46:08.439Z,19.70
2019-06-08T10:48:32.274Z,19.30
2019-06-08T10:51:03.777Z,19.20
2019-06-08T10:53:45.072Z,18.80
2019-06-08T10:56:01.714Z,18.80
2019-06-08T10:58:30.459Z,19.20
2019-06-08T11:01:02.261Z,19.00
2019-06-08T11:03:30.738Z,19.20
2019-06-08T11:06:00.880Z,19.60
2019-06-08T11:08:28.729Z,19.90
2019-06-08T11:10:57.879Z,20.00
2019-06-08T11:13:28.332Z,20.00
2019-06-08T11:15:58.700Z,19.70
2019-06-08T11:18:28.687Z,20.00
2019-06-08T11:20:59.494Z,20.10
2019-06-08T11:23:28.740Z,20.40
2019-06-08T11:26:02.977Z,20.30
2019-06-08T11:28:28.361Z,19.50
2019-06-08T11:30:56.734Z,19.30
2019-06-08T11:33:24.998Z,19.50
2019-06-08T11:35:53.314Z,19.70
2019-06-08T11:38:21.549Z,20.10
2019-06-08T11:40:49.841Z,20.50
2019-06-08T11:43:18.413Z,20.40
2019-06-08T11:45:48.079Z,20.00
2019-06-08T11:48:18.265Z,20.30
2019-06-08T11:50:48.870Z,20.60
2019-06-08T11:53:18.130Z,20.70
2019-06-08T11:55:50.660Z,20.90
2019-06-08T11:58:21.887Z,20.30
2019-06-08T12:01:12.778Z,20.10
2019-06-08T12:03:38.775Z,20.30
2019-06-08T12:06:10.493Z,20.40
2019-06-08T12:08:38.076Z,20.10
2019-06-08T12:11:11.564Z,20.00
2019-06-08T12:13:36.635Z,20.10
2019-06-08T12:16:05.011Z,20.10
2019-06-08T12:18:33.334Z,20.30
2019-06-08T12:21:01.676Z,20.80
2019-06-08T12:23:29.987Z,21.10
2019-06-08T12:25:58.245Z,20.80
2019-06-08T12:28:28.043Z,20.50
2019-06-08T12:30:56.505Z,20.50
2019-06-08T12:33:24.765Z,20.70
2019-06-08T12:35:53.020Z,20.40
2019-06-08T12:38:21.282Z,20.40
2019-06-08T12:40:49.537Z,20.70
2019-06-08T12:43:18.928Z,21.10
2019-06-08T12:45:47.766Z,21.00
2019-06-08T12:48:20.219Z,21.20
2019-06-08T12:50:47.864Z,21.00
2019-06-08T12:53:20.187Z,20.60
2019-06-08T12:55:47.602Z,20.60
2019-06-08T12:58:17.091Z,21.00
2019-06-08T13:00:48.068Z,21.20
2019-06-08T13:03:16.687Z,20.90
2019-06-08T13:05:45.102Z,20.40
2019-06-08T13:08:13.506Z,20.40
2019-06-08T13:10:42.561Z,20.40
2019-06-08T13:13:11.150Z,20.40
2019-06-08T13:15:40.821Z,20.30
2019-06-08T13:18:10.618Z,20.20
2019-06-08T13:20:39.039Z,19.90
2019-06-08T13:23:08.646Z,19.70
2019-06-08T13:25:42.968Z,19.50
2019-06-08T13:28:08.832Z,19.80
2019-06-08T13:30:38.976Z,20.10
2019-06-08T13:33:08.075Z,20.40
2019-06-08T13:35:39.205Z,20.80
2019-06-08T13:38:08.736Z,20.90
2019-06-08T13:40:37.784Z,20.90
2019-06-08T13:43:08.131Z,20.80
2019-06-08T13:45:39.119Z,20.60
2019-06-08T13:48:08.737Z,20.50
2019-06-08T13:50:36.641Z,20.80
2019-06-08T13:53:04.914Z,21.00
2019-06-08T13:55:56.512Z,20.90
2019-06-08T13:58:31.899Z,20.70
2019-06-08T14:00:52.657Z,20.70
2019-06-08T14:03:21.704Z,20.40
2019-06-08T14:05:50.941Z,19.90
2019-06-08T14:08:20.873Z,19.50
2019-06-08T14:10:49.174Z,19.50
2019-06-08T14:13:21.524Z,19.90
2019-06-08T14:15:48.713Z,20.60
2019-06-08T14:18:22.627Z,20.80
2019-06-08T14:20:48.379Z,20.70
2019-06-08T14:23:19.712Z,20.70
2019-06-08T14:25:53.193Z,21.20
2019-06-08T14:28:19.329Z,21.40
2019-06-08T14:30:47.989Z,21.70
2019-06-08T14:33:23.010Z,22.00
2019-06-08T14:35:46.348Z,22.30
2019-06-08T14:38:14.601Z,22.20
2019-06-08T14:40:42.853Z,22.00
2019-06-08T14:43:11.109Z,21.90
2019-06-08T14:45:39.358Z,21.70
2019-06-08T14:48:07.611Z,21.40
2019-06-08T14:50:40.237Z,21.00
2019-06-08T14:53:08.315Z,20.90
2019-06-08T14:55:38.454Z,21.20
2019-06-08T14:58:08.170Z,21.40
2019-06-08T15:00:37.861Z,21.50
2019-06-08T15:03:07.749Z,21.70
2019-06-08T15:05:35.800Z,22.00
2019-06-08T15:08:04.062Z,22.00
2019-06-08T15:10:32.314Z,22.20
2019-06-08T15:13:00.579Z,22.50
2019-06-08T15:15:30.792Z,22.20
2019-06-08T15:17:58.810Z,21.80
2019-06-08T15:20:28.305Z,21.90
2019-06-08T15:22:58.060Z,21.90
2019-06-08T15:25:27.363Z,22.10
2019-06-08T15:28:00.704Z,22.00
2019-06-08T15:30:29.375Z,21.80
2019-06-08T15:32:58.432Z,21.50
2019-06-08T15:35:27.333Z,21.10
2019-06-08T15:37:58.216Z,21.00
2019-06-08T15:40:26.021Z,21.10
2019-06-08T15:42:54.285Z,21.10
2019-06-08T15:45:22.531Z,21.30
2019-06-08T15:47:50.791Z,21.20
2019-06-08T15:50:19.038Z,21.10
2019-06-08T15:52:48.149Z,21.10
2019-06-08T15:55:19.329Z,20.90
2019-06-08T15:57:46.613Z,20.80
2019-06-08T16:00:14.961Z,20.90
2019-06-08T16:02:43.230Z,21.00
2019-06-08T16:05:11.496Z,21.00
2019-06-08T16:07:39.738Z,20.80
2019-06-08T16:10:08.189Z,20.50
2019-06-08T16:12:36.628Z,20.40
2019-06-08T16:15:07.552Z,20.50
2019-06-08T16:17:36.316Z,20.50
2019-06-08T16:20:05.638Z,20.50
2019-06-08T16:22:33.963Z,20.40
2019-06-08T16:25:02.307Z,20.20
2019-06-08T16:27:30.898Z,20.00
2019-06-08T16:30:00.501Z,19.90
2019-06-08T16:32:29.229Z,19.80
2019-06-08T16:34:57.723Z,19.70
2019-06-08T16:37:27.203Z,19.50
2019-06-08T16:39:55.852Z,19.50
2019-06-08T16:42:24.108Z,19.60
2019-06-08T16:44:52.432Z,19.60
2019-06-08T16:47:20.682Z,19.70
2019-06-08T16:49:48.935Z,19.70
2019-06-08T16:52:17.422Z,19.60
2019-06-08T16:54:45.813Z,19.70
2019-06-08T16:57:14.061Z,20.00
2019-06-08T16:59:42.316Z,20.10
2019-06-08T17:02:10.580Z,20.00
2019-06-08T17:04:39.218Z,20.00
2019-06-08T17:07:07.756Z,19.70
2019-06-08T17:09:36.055Z,19.60
2019-06-08T17:12:04.298Z,19.60
2019-06-08T17:14:34.006Z,19.60
2019-06-08T17:17:02.490Z,19.80
2019-06-08T17:19:31.918Z,19.90
2019-06-08T17:22:00.482Z,20.00
2019-06-08T17:24:28.744Z,20.10
2019-06-08T17:26:56.996Z,20.20
2019-06-08T17:29:25.255Z,20.20
2019-06-08T17:31:53.493Z,20.00
2019-06-08T17:34:21.746Z,19.80
2019-06-08T17:36:49.993Z,19.70
2019-06-08T17:39:18.253Z,19.60
2019-06-08T17:41:46.488Z,19.40
2019-06-08T17:44:14.753Z,19.30
2019-06-08T17:46:43.192Z,19.20
2019-06-08T17:49:11.741Z,19.20
2019-06-08T17:51:41.849Z,19.30
2019-06-08T17:54:09.973Z,19.30
2019-06-08T17:56:39.162Z,19.20
2019-06-08T17:59:07.466Z,19.20
2019-06-08T18:01:36.002Z,19.00
2019-06-08T18:04:04.474Z,18.90
2019-06-08T18:06:33.668Z,18.80
2019-06-08T18:09:02.134Z,18.70
2019-06-08T18:11:30.380Z,18.70
2019-06-08T18:13:58.947Z,18.60
2019-06-08T18:16:27.907Z,18.50
2019-06-08T18:18:57.716Z,18.40
2019-06-08T18:21:28.201Z,18.40
2019-06-08T18:23:57.213Z,18.30
2019-06-08T18:26:27.691Z,18.10
2019-06-08T18:28:57.996Z,18.00
2019-06-08T18:31:27.677Z,17.90
2019-06-08T18:33:57.725Z,17.90
2019-06-08T18:36:27.535Z,17.70
2019-06-08T18:38:57.999Z,17.60
2019-06-08T18:41:27.146Z,17.50
2019-06-08T18:43:58.173Z,17.50
2019-06-08T18:46:27.197Z,17.50
2019-06-08T18:48:57.907Z,17.50
2019-06-08T18:51:27.967Z,17.40
2019-06-08T18:54:08.743Z,17.30
2019-06-08T18:56:27.598Z,17.20
2019-06-08T18:58:58.169Z,17.10
2019-06-08T19:01:27.529Z,17.00
2019-06-08T19:03:57.758Z,17.00
2019-06-08T19:06:27.698Z,16.80
2019-06-08T19:08:57.803Z,16.70
2019-06-08T19:11:28.422Z,16.60
2019-06-08T19:13:57.917Z,16.50
2019-06-08T19:16:28.185Z,16.50
2019-06-08T19:18:57.959Z,16.50
2019-06-08T19:21:27.787Z,16.50
2019-06-08T19:23:55.554Z,16.40
2019-06-08T19:26:23.822Z,16.30
2019-06-08T19:28:54.063Z,16.30
2019-06-08T19:31:22.059Z,16.20
2019-06-08T19:33:53.371Z,16.10
2019-06-08T19:36:20.650Z,16.10
2019-06-08T19:38:54.499Z,16.10
2019-06-08T19:41:18.889Z,15.90
2019-06-08T19:43:53.230Z,15.90
2019-06-08T19:46:18.073Z,15.80
2019-06-08T19:48:53.294Z,15.70
2019-06-08T19:51:17.135Z,15.70
2019-06-08T19:53:49.246Z,15.70
2019-06-08T19:56:17.362Z,15.80
2019-06-08T19:58:58.069Z,15.80
2019-06-08T20:01:17.331Z,15.80
2019-06-08T20:03:45.489Z,15.80
2019-06-08T20:06:14.450Z,15.80
2019-06-08T20:08:43.013Z,15.90
2019-06-08T20:11:11.345Z,15.90
2019-06-08T20:13:39.602Z,15.90
2019-06-08T20:16:08.429Z,16.00
2019-06-08T20:18:37.551Z,15.90
2019-06-08T20:21:09.644Z,15.80
2019-06-08T20:23:38.053Z,15.80
2019-06-08T20:26:08.166Z,15.70
2019-06-08T20:28:37.301Z,15.60
2019-06-08T20:31:07.462Z,15.50
2019-06-08T20:33:37.842Z,15.40
2019-06-08T20:36:08.053Z,15.30
2019-06-08T20:38:41.500Z,15.10
2019-06-08T20:41:07.626Z,15.00
2019-06-08T20:43:40.524Z,15.00
2019-06-08T20:46:08.143Z,14.90
2019-06-08T20:48:37.829Z,14.80
2019-06-08T20:51:07.892Z,14.70
2019-06-08T20:53:38.354Z,14.60
2019-06-08T20:56:07.963Z,14.50
2019-06-08T20:58:37.149Z,14.50
2019-06-08T21:01:07.363Z,14.50
2019-06-08T21:03:35.517Z,14.50
2019-06-08T21:06:03.774Z,14.50
2019-06-08T21:08:32.028Z,14.50
2019-06-08T21:11:00.279Z,14.40
2019-06-08T21:13:28.542Z,14.40
2019-06-08T21:16:00.272Z,14.40
2019-06-08T21:18:27.589Z,14.30
2019-06-08T21:20:58.122Z,14.20
2019-06-08T21:23:27.811Z,14.20
2019-06-08T21:25:59.820Z,14.10
2019-06-08T21:28:28.020Z,14.10
2019-06-08T21:31:01.194Z,14.10
2019-06-08T21:33:26.197Z,14.10
2019-06-08T21:36:03.422Z,14.10
2019-06-08T21:38:24.599Z,14.10
2019-06-08T21:40:55.460Z,14.10
2019-06-08T21:43:23.049Z,14.20
2019-06-08T21:45:52.078Z,14.10
2019-06-08T21:48:21.280Z,14.20
2019-06-08T21:50:51.730Z,14.10
2019-06-08T21:53:19.505Z,14.00
2019-06-08T21:55:47.977Z,14.00
2019-06-08T21:58:17.888Z,13.90
2019-06-08T22:00:49.438Z,13.90
2019-06-08T22:03:17.700Z,13.90
2019-06-08T22:05:47.292Z,13.90
2019-06-08T22:08:17.318Z,13.80
2019-06-08T22:10:47.118Z,13.80
2019-06-08T22:13:17.518Z,13.70
2019-06-08T22:15:47.439Z,13.70
2019-06-08T22:18:15.501Z,13.70
2019-06-08T22:20:43.758Z,13.60
2019-06-08T22:23:12.008Z,13.60
2019-06-08T22:25:40.309Z,13.60
2019-06-08T22:28:08.593Z,13.60
2019-06-08T22:30:42.743Z,13.60
2019-06-08T22:33:06.822Z,13.50
2019-06-08T22:35:37.250Z,13.50
2019-06-08T22:38:05.060Z,13.50
2019-06-08T22:40:33.381Z,13.50
2019-06-08T22:43:01.645Z,13.40
2019-06-08T22:45:29.893Z,13.40
2019-06-08T22:48:00.548Z,13.30
2019-06-08T22:50:28.126Z,13.20
2019-06-08T22:52:59.374Z,13.10
2019-06-08T22:55:27.734Z,13.00
2019-06-08T22:57:59.857Z,12.90
2019-06-08T23:00:27.912Z,12.80
2019-06-08T23:02:59.265Z,12.80
2019-06-08T23:05:27.854Z,12.70
2019-06-08T23:07:59.809Z,12.70
2019-06-08T23:10:26.385Z,12.60
2019-06-08T23:12:54.649Z,12.60
2019-06-08T23:15:22.909Z,12.50
2019-06-08T23:17:51.173Z,12.50
2019-06-08T23:20:19.418Z,12.50
2019-06-08T23:22:47.674Z,12.40
2019-06-08T23:25:18.217Z,12.30
2019-06-08T23:27:48.236Z,12.20
2019-06-08T23:30:18.250Z,12.20
2019-06-08T23:32:47.941Z,12.20
2019-06-08T23:35:18.223Z,12.10
2019-06-08T23:37:47.783Z,12.10
2019-06-08T23:40:17.932Z,12.10
2019-06-08T23:42:47.667Z,12.10
2019-06-08T23:45:17.676Z,12.10
2019-06-08T23:47:48.115Z,12.10
2019-06-08T23:50:17.831Z,12.10
2019-06-08T23:52:47.712Z,12.10
2019-06-08T23:55:18.205Z,12.00
2019-06-08T23:57:46.206Z,11.90
